Terminal Aerodrome Forecast
Issued by NWS Bismarck, ND

Home | Current Version | Previous Version | Graphics & Text | Print | Product List | Glossary On
Versions: 1 2 3 4 5 6 7 8 9 10 11 12 13 14 15 16 17 18 19 20 21 22 23 24 25
705
FTUS43 KBIS 231005 AAA
TAFBIS
TAF AMD
KBIS 231005Z 2310/2406 06008KT P6SM BKN120
     FM231200 09004KT 6SM -FZRA OVC100
     FM231400 06004KT 6SM -RA OVC070
     FM231900 03005KT P6SM VCSH OVC050
     FM240000 35007KT P6SM OVC045=

USA.gov is the U.S. government's official web portal to all federal, state and local government web resources and services.